Time;durP1;ratioP1;P1;durP2;ratioP2;P2;SDS_P1;SDS_P2;PMS_P1;PMS_P2;Temp;Humidity;BMP_temperature;BMP_pressure;BME280_temperature;BME280_humidity;BME280_pressure;Samples;Min_cycle;Max_cycle;Signal;HPM_P1;HPM_P2
2024/03/04 00:02:09;;;;;;;5.03;4.30;;;11.00;31.20;;;;;;10493500;28;20228;-77
2024/03/04 00:07:14;;;;;;;5.00;4.50;;;11.00;31.00;;;;;;10494095;28;20232;-77
2024/03/04 00:12:20;;;;;;;5.57;5.07;;;10.90;30.90;;;;;;10494074;28;20247;-77
2024/03/04 00:17:25;;;;;;;5.77;5.00;;;10.80;31.10;;;;;;10494475;28;20581;-77
2024/03/04 00:22:28;;;;;;;5.00;4.57;;;10.70;31.00;;;;;;10494063;28;20228;-77
2024/03/04 00:27:33;;;;;;;4.63;4.23;;;10.70;31.20;;;;;;10493048;28;20232;-77
2024/03/04 00:32:36;;;;;;;4.60;4.20;;;10.60;31.50;;;;;;10493300;28;20720;-77
2024/03/04 00:37:41;;;;;;;4.23;3.83;;;10.60;31.20;;;;;;10493385;28;20259;-77
2024/03/04 00:42:45;;;;;;;3.50;3.20;;;10.60;31.20;;;;;;10493033;28;20591;-77
2024/03/04 00:47:49;;;;;;;7.13;4.13;;;10.60;31.30;;;;;;10493070;28;20247;-77
2024/03/04 00:52:55;;;;;;;5.07;4.67;;;10.50;31.10;;;;;;10492498;28;20294;-77
2024/03/04 00:57:59;;;;;;;4.60;4.20;;;10.40;31.20;;;;;;10492755;28;20797;-77
2024/03/04 01:03:03;;;;;;;4.70;4.30;;;10.30;31.50;;;;;;10492152;28;20746;-77
2024/03/04 01:08:07;;;;;;;4.80;4.30;;;10.20;31.40;;;;;;10486743;28;20227;-77
2024/03/04 01:13:12;;;;;;;4.43;4.03;;;10.10;31.60;;;;;;10472968;28;20419;-77
2024/03/04 01:18:16;;;;;;;4.70;4.20;;;10.10;31.80;;;;;;10481328;28;20227;-77
2024/03/04 01:23:19;;;;;;;3.80;3.50;;;10.00;31.70;;;;;;10480120;28;20754;-76
2024/03/04 01:28:24;;;;;;;5.20;4.13;;;9.90;32.90;;;;;;10473805;28;20232;-77
2024/03/04 01:33:29;;;;;;;4.60;4.20;;;9.90;33.20;;;;;;10476533;28;20248;-77
2024/03/04 01:38:32;;;;;;;4.80;4.40;;;9.80;33.10;;;;;;10468923;28;20224;-77
2024/03/04 01:43:37;;;;;;;4.20;3.77;;;9.80;33.00;;;;;;10470367;28;20228;-78
2024/03/04 01:48:41;;;;;;;5.43;4.53;;;9.70;33.20;;;;;;10478246;28;20567;-78
2024/03/04 01:53:46;;;;;;;5.27;4.00;;;9.70;33.20;;;;;;10472380;28;20229;-77
2024/03/04 01:58:50;;;;;;;6.03;4.53;;;9.70;33.30;;;;;;10476555;28;20216;-77
2024/03/04 02:03:54;;;;;;;6.67;5.27;;;9.60;33.30;;;;;;10469521;28;20371;-77
2024/03/04 02:08:58;;;;;;;6.80;5.03;;;9.50;33.10;;;;;;10486750;28;20282;-77
2024/03/04 02:14:02;;;;;;;6.70;4.50;;;9.40;33.40;;;;;;10474249;28;20258;-77
2024/03/04 02:19:08;;;;;;;4.90;4.40;;;9.40;33.80;;;;;;10473301;28;20227;-78
2024/03/04 02:24:14;;;;;;;5.80;4.63;;;9.30;33.50;;;;;;10476634;28;20319;-77
2024/03/04 02:29:17;;;;;;;5.00;4.50;;;9.30;33.90;;;;;;10479484;28;20242;-77
2024/03/04 02:34:20;;;;;;;4.77;4.37;;;9.30;33.60;;;;;;10482774;28;20250;-77
2024/03/04 02:39:26;;;;;;;4.97;4.10;;;9.30;33.50;;;;;;10474654;28;20252;-77
2024/03/04 02:44:30;;;;;;;4.80;4.30;;;9.20;33.60;;;;;;10475301;28;20228;-78
2024/03/04 02:49:35;;;;;;;5.77;4.40;;;9.10;33.50;;;;;;10473132;28;20259;-77
2024/03/04 02:54:40;;;;;;;5.10;4.70;;;9.00;33.60;;;;;;10477985;28;20710;-78
2024/03/04 02:59:43;;;;;;;4.30;3.90;;;8.80;33.90;;;;;;10472006;28;20705;-78
2024/03/04 03:04:46;;;;;;;5.07;4.57;;;8.80;33.90;;;;;;10468697;28;20614;-78
2024/03/04 03:09:51;;;;;;;5.97;4.53;;;8.80;33.70;;;;;;10472439;28;20744;-78
2024/03/04 03:14:54;;;;;;;6.93;4.73;;;8.60;34.00;;;;;;10472416;28;20232;-77
2024/03/04 03:19:57;;;;;;;7.43;4.27;;;8.50;34.00;;;;;;10471379;28;20232;-78
2024/03/04 03:25:02;;;;;;;5.70;4.30;;;8.60;34.10;;;;;;10480793;28;20227;-77
2024/03/04 03:30:07;;;;;;;4.77;4.20;;;8.60;34.10;;;;;;10475804;28;20324;-78
2024/03/04 03:35:10;;;;;;;5.03;3.90;;;8.60;34.00;;;;;;10475414;28;20798;-77
2024/03/04 03:40:14;;;;;;;4.00;3.60;;;8.50;33.60;;;;;;10477946;28;20264;-78
2024/03/04 03:45:18;;;;;;;3.10;2.80;;;8.40;33.90;;;;;;10473802;28;20228;-78
2024/03/04 03:50:21;;;;;;;3.87;3.40;;;8.30;33.80;;;;;;10477626;28;20277;-77
2024/03/04 03:55:25;;;;;;;5.40;3.80;;;8.30;34.00;;;;;;10474068;28;20252;-78
2024/03/04 04:00:29;;;;;;;4.60;3.50;;;8.30;34.10;;;;;;10474434;28;20603;-77
2024/03/04 04:05:35;;;;;;;4.77;3.63;;;8.20;33.80;;;;;;10483635;28;20224;-77
2024/03/04 04:10:40;;;;;;;3.60;3.23;;;8.10;33.90;;;;;;10483953;28;20228;-77
2024/03/04 04:15:43;;;;;;;5.93;3.77;;;8.00;34.30;;;;;;10490369;28;20235;-78
2024/03/04 04:20:46;;;;;;;4.67;3.37;;;7.90;34.20;;;;;;10475375;28;20240;-77
2024/03/04 04:25:51;;;;;;;4.03;3.33;;;7.70;34.10;;;;;;10488407;28;20228;-78
2024/03/04 04:30:54;;;;;;;3.50;3.20;;;7.70;34.60;;;;;;10488170;28;20318;-78
2024/03/04 04:35:58;;;;;;;3.37;3.07;;;7.70;34.50;;;;;;10486498;28;20227;-78
2024/03/04 04:41:03;;;;;;;3.60;3.30;;;7.70;34.40;;;;;;10496723;28;20220;-78
2024/03/04 04:46:07;;;;;;;4.53;3.50;;;7.70;34.50;;;;;;10508824;28;20407;-77
2024/03/04 04:51:10;;;;;;;3.30;3.00;;;7.70;34.40;;;;;;10505923;28;20238;-78
2024/03/04 04:56:18;;;;;;;3.83;3.30;;;7.80;34.40;;;;;;10505448;28;20235;-77
2024/03/04 05:01:27;;;;;;;3.93;3.60;;;7.70;34.80;;;;;;10494088;28;20227;-78
2024/03/04 05:06:31;;;;;;;4.37;3.77;;;7.70;34.80;;;;;;10496391;28;20274;-78
2024/03/04 05:11:35;;;;;;;3.83;3.43;;;7.70;34.20;;;;;;10489490;28;20593;-78
2024/03/04 05:16:39;;;;;;;4.97;4.20;;;7.50;34.50;;;;;;10485099;28;20252;-77
2024/03/04 05:21:43;;;;;;;3.97;3.63;;;7.50;34.60;;;;;;10481391;28;20239;-77
2024/03/04 05:26:48;;;;;;;4.87;3.43;;;7.40;34.70;;;;;;10498862;28;20758;-77
2024/03/04 05:31:55;;;;;;;6.20;4.00;;;7.30;35.10;;;;;;10488761;28;20282;-78
2024/03/04 05:36:58;;;;;;;5.17;4.07;;;7.20;35.60;;;;;;10494887;28;20224;-77
2024/03/04 05:42:03;;;;;;;4.67;4.17;;;7.10;35.30;;;;;;10494180;28;20235;-79
2024/03/04 05:47:08;;;;;;;4.47;4.07;;;7.00;35.90;;;;;;10495818;28;20231;-78
2024/03/04 05:52:11;;;;;;;5.70;5.03;;;6.90;36.40;;;;;;10496115;28;20262;-77
2024/03/04 05:57:16;;;;;;;6.73;6.07;;;6.80;36.60;;;;;;10537276;28;20281;-78
2024/03/04 06:02:20;;;;;;;9.03;8.07;;;6.90;37.70;;;;;;10536438;28;20311;-78
2024/03/04 06:07:23;;;;;;;7.40;6.70;;;7.00;37.90;;;;;;10526383;28;20247;-78
2024/03/04 06:12:28;;;;;;;8.07;7.23;;;7.10;38.20;;;;;;10478113;28;20586;-78
2024/03/04 06:17:33;;;;;;;10.40;8.87;;;7.20;38.60;;;;;;10474181;28;20572;-78
2024/03/04 06:22:38;;;;;;;10.53;9.43;;;7.40;38.80;;;;;;10473376;28;20647;-78
2024/03/04 06:27:43;;;;;;;10.00;9.10;;;7.60;38.90;;;;;;10472186;28;20282;-78
2024/03/04 06:32:46;;;;;;;10.57;9.53;;;7.80;39.40;;;;;;10485849;28;20235;-78
2024/03/04 06:37:50;;;;;;;11.30;10.20;;;8.00;39.30;;;;;;10474644;28;20216;-78
2024/03/04 06:42:55;;;;;;;13.40;10.70;;;8.20;39.40;;;;;;10480451;28;20278;-76
2024/03/04 06:48:01;;;;;;;11.83;10.63;;;8.30;39.60;;;;;;10474129;28;20336;-78
2024/03/04 06:53:05;;;;;;;13.23;11.07;;;8.40;39.50;;;;;;10476244;28;20228;-78
2024/03/04 06:58:09;;;;;;;12.03;10.90;;;8.60;39.70;;;;;;10483454;28;20250;-78
2024/03/04 07:03:12;;;;;;;13.20;11.57;;;8.70;39.80;;;;;;10487078;28;20275;-78
2024/03/04 07:08:16;;;;;;;13.10;11.70;;;8.80;39.80;;;;;;10477288;28;20758;-77
2024/03/04 07:13:20;;;;;;;13.67;12.20;;;8.90;40.00;;;;;;10471697;28;20224;-77
2024/03/04 07:18:24;;;;;;;15.07;13.23;;;8.90;40.00;;;;;;10475410;28;20843;-77
2024/03/04 07:23:28;;;;;;;14.83;12.70;;;9.10;40.10;;;;;;10475670;28;20732;-77
2024/03/04 07:28:33;;;;;;;15.07;13.50;;;9.10;40.10;;;;;;10474161;28;20273;-77
2024/03/04 07:33:37;;;;;;;17.30;14.00;;;9.20;40.20;;;;;;10470157;28;20238;-77
2024/03/04 07:38:40;;;;;;;16.10;14.23;;;9.30;40.30;;;;;;10483097;28;20767;-78
2024/03/04 07:43:44;;;;;;;17.30;15.43;;;9.40;40.40;;;;;;10486219;28;20222;-77
2024/03/04 07:48:47;;;;;;;15.27;13.67;;;9.50;40.50;;;;;;10484062;28;20274;-77
2024/03/04 07:53:51;;;;;;;17.53;15.63;;;9.60;40.20;;;;;;10481547;28;20236;-77
2024/03/04 07:58:55;;;;;;;18.03;15.57;;;9.60;40.50;;;;;;10477559;28;20273;-78
2024/03/04 08:03:58;;;;;;;16.93;15.07;;;9.70;40.80;;;;;;10475852;28;20277;-77
2024/03/04 08:09:01;;;;;;;17.23;15.40;;;9.80;40.70;;;;;;10488372;28;20273;-77
2024/03/04 08:14:06;;;;;;;18.73;16.10;;;9.90;40.80;;;;;;10484319;28;20236;-77
2024/03/04 08:19:11;;;;;;;21.00;16.37;;;10.00;39.90;;;;;;10478197;28;20651;-77
2024/03/04 08:24:14;;;;;;;17.77;15.87;;;10.10;40.00;;;;;;10479595;28;20320;-77
2024/03/04 08:29:19;;;;;;;20.23;17.07;;;10.10;40.00;;;;;;10472383;28;20292;-78
2024/03/04 08:34:24;;;;;;;18.13;16.17;;;10.20;40.10;;;;;;10483474;28;20285;-78
2024/03/04 08:39:27;;;;;;;17.90;16.03;;;10.30;40.20;;;;;;10475858;28;20270;-79
2024/03/04 08:44:31;;;;;;;18.20;16.30;;;10.30;40.20;;;;;;10479102;28;20311;-79
2024/03/04 08:49:35;;;;;;;17.77;15.87;;;10.40;40.30;;;;;;10475885;28;20220;-79
2024/03/04 08:54:38;;;;;;;17.30;15.50;;;10.50;40.40;;;;;;10480273;28;20233;-79
2024/03/04 08:59:43;;;;;;;18.70;15.77;;;10.60;40.10;;;;;;10482796;28;20220;-79
2024/03/04 09:04:49;;;;;;;19.60;17.50;;;10.60;40.50;;;;;;10482276;28;20311;-79
2024/03/04 09:09:53;;;;;;;18.17;15.50;;;10.70;40.30;;;;;;10480517;28;20228;-79
2024/03/04 09:14:58;;;;;;;17.73;15.93;;;10.80;40.20;;;;;;10481013;28;20228;-80
2024/03/04 09:20:01;;;;;;;19.47;16.13;;;10.90;40.70;;;;;;10480671;28;20315;-80
2024/03/04 09:25:06;;;;;;;18.43;16.47;;;10.90;40.00;;;;;;10479804;28;20742;-78
2024/03/04 09:30:11;;;;;;;18.10;16.30;;;11.00;40.60;;;;;;10480100;28;20229;-79
2024/03/04 09:35:15;;;;;;;19.23;17.00;;;11.10;40.90;;;;;;10476532;28;20260;-78
2024/03/04 09:40:18;;;;;;;18.13;16.30;;;11.20;40.70;;;;;;10478926;28;20278;-79
2024/03/04 09:45:25;;;;;;;17.80;15.87;;;11.20;40.30;;;;;;10475978;28;20709;-78
2024/03/04 09:50:28;;;;;;;18.43;16.53;;;11.30;41.50;;;;;;10478130;28;20313;-79
2024/03/04 09:55:31;;;;;;;19.70;17.23;;;11.40;40.70;;;;;;10481391;28;20596;-79
2024/03/04 10:00:37;;;;;;;19.90;17.17;;;11.40;40.80;;;;;;10474168;28;20870;-79
2024/03/04 10:05:46;;;;;;;20.20;17.73;;;11.50;41.30;;;;;;10475502;28;20216;-79
2024/03/04 10:10:50;;;;;;;18.93;16.93;;;11.50;41.10;;;;;;10473367;28;20225;-79
2024/03/04 10:15:55;;;;;;;18.80;16.70;;;11.60;40.50;;;;;;10472077;28;20228;-80
2024/03/04 10:21:00;;;;;;;18.90;16.90;;;11.70;41.00;;;;;;10479837;28;20349;-78
2024/03/04 10:26:07;;;;;;;18.43;16.33;;;11.70;40.40;;;;;;10478182;28;20220;-79
2024/03/04 10:31:14;;;;;;;19.97;17.00;;;11.70;41.40;;;;;;10477475;28;20324;-78
2024/03/04 10:36:18;;;;;;;19.53;17.37;;;11.80;40.90;;;;;;10480601;28;20232;-79
2024/03/04 10:41:23;;;;;;;18.73;16.70;;;11.90;40.40;;;;;;10477282;28;20255;-79
2024/03/04 10:46:31;;;;;;;20.37;17.97;;;12.00;40.20;;;;;;10473991;28;20263;-79
2024/03/04 10:51:34;;;;;;;20.10;16.57;;;12.00;40.50;;;;;;10479242;28;20235;-80
2024/03/04 10:56:43;;;;;;;19.63;17.57;;;12.10;40.20;;;;;;10479168;28;20320;-79
2024/03/04 11:01:49;;;;;;;20.43;18.33;;;12.10;40.70;;;;;;10479998;28;20714;-80
2024/03/04 11:06:52;;;;;;;19.10;17.10;;;12.10;40.70;;;;;;10469690;28;20255;-79
2024/03/04 11:11:59;;;;;;;19.90;17.70;;;12.20;40.10;;;;;;10477986;28;20297;-79
2024/03/04 11:17:11;;;;;;;19.37;17.13;;;12.20;40.50;;;;;;10483037;28;20333;-78
2024/03/04 11:22:14;;;;;;;18.93;16.57;;;12.20;40.90;;;;;;10490078;28;20232;-79
2024/03/04 11:27:18;;;;;;;19.37;17.37;;;12.30;40.00;;;;;;10488303;28;20785;-80
2024/03/04 11:32:28;;;;;;;19.57;17.57;;;12.40;40.30;;;;;;10485909;28;20319;-80
2024/03/04 11:37:32;;;;;;;21.00;18.90;;;12.40;40.40;;;;;;10480622;28;20799;-81
2024/03/04 11:42:38;;;;;;;20.40;17.93;;;12.50;40.00;;;;;;10491126;28;20662;-78
2024/03/04 11:47:43;;;;;;;20.40;18.27;;;12.50;40.80;;;;;;10488642;28;20302;-78
2024/03/04 11:52:46;;;;;;;20.07;17.97;;;12.50;40.20;;;;;;10483618;28;20691;-78
2024/03/04 11:57:50;;;;;;;20.47;18.43;;;12.60;39.90;;;;;;10482147;28;20220;-78
2024/03/04 12:03:03;;;;;;;19.73;16.93;;;12.60;40.00;;;;;;10484128;28;20231;-79
2024/03/04 12:08:07;;;;;;;20.60;18.40;;;12.60;40.60;;;;;;10483886;28;20224;-78
2024/03/04 12:13:35;;;;;;;22.23;19.50;;;12.70;39.90;;;;;;10483842;28;20818;-77
2024/03/04 12:18:40;;;;;;;21.47;19.17;;;12.70;40.50;;;;;;10470299;28;20354;-77
2024/03/04 12:23:43;;;;;;;21.93;19.53;;;12.80;40.00;;;;;;10472265;28;20643;-78
2024/03/04 12:28:58;;;;;;;22.07;19.50;;;12.80;39.70;;;;;;10464604;28;20228;-77
2024/03/04 12:34:04;;;;;;;21.10;18.90;;;12.80;40.70;;;;;;10460801;28;20232;-77
2024/03/04 12:39:12;;;;;;;21.17;18.97;;;12.80;40.10;;;;;;10464052;28;20695;-76
2024/03/04 12:44:20;;;;;;;22.27;18.90;;;12.80;40.10;;;;;;10461787;28;20232;-76
2024/03/04 12:49:25;;;;;;;21.70;19.30;;;12.80;40.20;;;;;;10464951;28;21188;-77
2024/03/04 12:54:35;;;;;;;19.60;17.60;;;12.90;40.10;;;;;;10463745;28;20232;-75
2024/03/04 12:59:44;;;;;;;21.23;19.03;;;12.90;40.00;;;;;;10463150;28;20229;-75
2024/03/04 13:04:50;;;;;;;22.57;20.17;;;13.00;40.40;;;;;;10475248;28;20240;-75
2024/03/04 13:09:54;;;;;;;22.53;20.13;;;13.00;39.70;;;;;;10474879;28;20711;-75
2024/03/04 13:14:57;;;;;;;23.67;20.60;;;13.00;39.60;;;;;;10471496;28;20232;-76
2024/03/04 13:20:08;;;;;;;21.67;19.37;;;13.00;39.50;;;;;;10473853;28;20985;-76
2024/03/04 13:25:12;;;;;;;21.73;19.10;;;13.00;39.60;;;;;;10463985;28;20726;-78
2024/03/04 13:30:15;;;;;;;21.23;18.83;;;13.00;39.50;;;;;;10474169;28;20231;-77
2024/03/04 13:35:20;;;;;;;21.10;18.97;;;13.00;39.20;;;;;;10469385;28;20739;-74
2024/03/04 13:40:23;;;;;;;20.10;18.00;;;13.00;39.30;;;;;;10466793;28;20300;-80
2024/03/04 13:45:27;;;;;;;21.00;18.80;;;13.00;39.90;;;;;;10479427;28;20251;-77
2024/03/04 13:50:31;;;;;;;21.50;19.20;;;13.10;39.30;;;;;;10464837;28;20229;-78
2024/03/04 13:55:34;;;;;;;20.30;18.23;;;13.10;39.20;;;;;;10467051;28;20259;-77
2024/03/04 14:00:38;;;;;;;21.23;19.03;;;13.10;39.00;;;;;;10471339;28;20232;-77
2024/03/04 14:05:42;;;;;;;19.90;17.80;;;13.10;39.00;;;;;;10475556;28;20256;-78
2024/03/04 14:10:45;;;;;;;21.20;19.00;;;13.00;39.20;;;;;;10468238;28;20927;-77
2024/03/04 14:15:50;;;;;;;20.47;18.27;;;13.10;39.20;;;;;;10464166;28;20255;-77
2024/03/04 14:20:56;;;;;;;20.63;18.00;;;13.10;39.10;;;;;;10464794;28;20236;-76
2024/03/04 14:25:59;;;;;;;21.53;19.23;;;13.10;39.20;;;;;;10468457;28;20321;-77
2024/03/04 14:31:04;;;;;;;20.10;18.00;;;13.20;39.00;;;;;;10465935;28;20576;-76
2024/03/04 14:36:09;;;;;;;21.67;19.37;;;13.20;39.00;;;;;;10468581;28;20229;-76
2024/03/04 14:41:14;;;;;;;20.43;18.23;;;13.10;39.10;;;;;;10459899;28;20636;-76
2024/03/04 14:46:18;;;;;;;23.23;20.83;;;13.20;39.30;;;;;;10460317;28;20329;-77
2024/03/04 14:51:23;;;;;;;23.87;20.07;;;13.10;39.00;;;;;;10470774;28;20224;-77
2024/03/04 14:56:28;;;;;;;22.50;19.17;;;13.10;39.00;;;;;;10466144;28;20228;-78
2024/03/04 15:01:32;;;;;;;23.07;20.60;;;13.10;38.80;;;;;;10468626;28;20261;-76
2024/03/04 15:06:37;;;;;;;21.13;18.77;;;13.10;38.80;;;;;;10463435;28;20274;-77
2024/03/04 15:11:42;;;;;;;20.77;18.57;;;13.00;38.80;;;;;;10468520;28;20307;-78
2024/03/04 15:16:48;;;;;;;22.00;18.37;;;13.00;38.90;;;;;;10468523;28;20235;-75
2024/03/04 15:21:54;;;;;;;21.77;18.53;;;13.00;38.90;;;;;;10470152;28;20225;-77
2024/03/04 15:26:57;;;;;;;21.17;18.90;;;13.00;38.90;;;;;;10457241;28;20315;-76
2024/03/04 15:32:01;;;;;;;21.13;18.50;;;13.10;38.70;;;;;;10476705;28;20229;-76
2024/03/04 15:37:07;;;;;;;20.50;17.70;;;13.10;38.60;;;;;;10468546;28;20270;-76
2024/03/04 15:42:10;;;;;;;20.43;16.83;;;13.00;38.60;;;;;;10467574;28;20224;-77
2024/03/04 15:47:13;;;;;;;18.87;16.63;;;13.00;38.60;;;;;;10467450;28;20320;-78
2024/03/04 15:52:18;;;;;;;21.40;16.87;;;12.90;38.50;;;;;;10456791;28;20229;-77
2024/03/04 15:57:21;;;;;;;18.63;16.63;;;12.90;38.70;;;;;;10471654;28;20353;-76
2024/03/04 16:02:24;;;;;;;21.77;17.23;;;12.90;38.60;;;;;;10473385;28;20281;-77
2024/03/04 16:07:29;;;;;;;22.03;18.40;;;13.00;38.80;;;;;;10482062;28;20609;-76
2024/03/04 16:12:32;;;;;;;20.70;18.50;;;13.00;38.80;;;;;;10486323;28;20358;-77
2024/03/04 16:17:35;;;;;;;20.83;17.60;;;13.00;39.00;;;;;;10471009;28;20772;-74
2024/03/04 16:22:40;;;;;;;24.27;19.97;;;13.00;39.70;;;;;;10476582;28;20276;-75
2024/03/04 16:27:46;;;;;;;23.23;19.70;;;13.00;39.00;;;;;;10469501;28;20240;-77
2024/03/04 16:32:49;;;;;;;21.93;19.43;;;13.00;38.80;;;;;;10474380;28;20228;-78
2024/03/04 16:37:54;;;;;;;22.77;18.77;;;13.00;38.80;;;;;;10479284;28;20224;-79
2024/03/04 16:42:57;;;;;;;23.47;19.33;;;13.10;39.00;;;;;;10487729;28;20220;-79
2024/03/04 16:48:00;;;;;;;28.30;21.93;;;13.10;38.90;;;;;;10480981;28;20267;-80
2024/03/04 16:53:05;;;;;;;23.30;19.20;;;13.20;38.80;;;;;;10478110;28;20240;-80
2024/03/04 16:58:08;;;;;;;24.67;20.07;;;13.20;38.80;;;;;;10478238;28;20277;-79
2024/03/04 17:03:12;;;;;;;21.07;17.67;;;13.10;38.60;;;;;;10480492;28;21087;-79
2024/03/04 17:08:16;;;;;;;26.20;20.43;;;13.10;38.60;;;;;;10480037;28;20311;-80
2024/03/04 17:13:19;;;;;;;25.47;20.37;;;13.10;38.70;;;;;;10476686;28;20225;-80
2024/03/04 17:18:23;;;;;;;24.73;19.17;;;13.10;38.70;;;;;;10474093;28;20245;-80
2024/03/04 17:23:28;;;;;;;23.43;18.93;;;13.10;38.60;;;;;;10473831;28;20232;-80
2024/03/04 17:28:31;;;;;;;31.13;24.20;;;13.10;38.80;;;;;;10478257;28;20239;-79
2024/03/04 17:33:34;;;;;;;25.83;21.03;;;13.00;38.70;;;;;;10476151;28;20227;-80
2024/03/04 17:38:39;;;;;;;26.93;21.07;;;13.10;38.80;;;;;;10484750;28;20224;-79
2024/03/04 17:43:42;;;;;;;27.10;21.77;;;13.10;39.00;;;;;;10472608;28;20236;-80
2024/03/04 17:48:45;;;;;;;24.87;21.20;;;13.10;38.80;;;;;;10482368;28;20270;-80
2024/03/04 17:53:50;;;;;;;26.03;20.43;;;13.10;38.80;;;;;;10480276;28;20232;-80
2024/03/04 17:58:55;;;;;;;23.00;18.40;;;13.10;38.90;;;;;;10485315;28;20228;-80
2024/03/04 18:03:58;;;;;;;18.10;16.10;;;13.20;38.80;;;;;;10482877;28;20232;-80
2024/03/04 18:09:03;;;;;;;25.97;21.23;;;13.20;38.80;;;;;;10482062;28;20224;-80
2024/03/04 18:14:06;;;;;;;23.77;19.43;;;13.20;38.90;;;;;;10469431;28;20236;-80
2024/03/04 18:19:13;;;;;;;24.97;20.47;;;13.20;38.80;;;;;;10470370;28;20263;-81
2024/03/04 18:24:18;;;;;;;24.37;19.83;;;13.20;38.70;;;;;;10478648;28;20221;-80
2024/03/04 18:29:21;;;;;;;40.70;32.47;;;13.20;38.80;;;;;;10471285;28;20331;-80
2024/03/04 18:34:29;;;;;;;30.30;24.10;;;13.20;38.80;;;;;;10481503;28;20243;-80
2024/03/04 18:39:33;;;;;;;23.90;20.97;;;13.10;38.70;;;;;;10474087;28;20224;-82
2024/03/04 18:44:37;;;;;;;25.73;21.83;;;13.10;38.90;;;;;;10466836;28;20286;-81
2024/03/04 18:49:40;;;;;;;28.33;23.53;;;13.10;38.90;;;;;;10481537;28;20216;-80
2024/03/04 18:54:44;;;;;;;28.47;22.20;;;13.10;38.90;;;;;;10474579;28;20285;-81
2024/03/04 18:59:47;;;;;;;26.43;21.60;;;13.10;39.00;;;;;;10474991;28;20234;-81
2024/03/04 19:04:51;;;;;;;26.40;21.53;;;13.10;39.00;;;;;;10473401;28;20747;-81
2024/03/04 19:10:01;;;;;;;27.07;22.50;;;13.10;39.00;;;;;;10467785;28;20723;-81
2024/03/04 19:15:06;;;;;;;25.73;20.67;;;13.10;39.10;;;;;;10477032;28;20232;-81
2024/03/04 19:20:11;;;;;;;24.90;20.03;;;13.10;39.00;;;;;;10474722;28;20232;-81
2024/03/04 19:25:16;;;;;;;27.23;22.13;;;13.10;39.00;;;;;;10475387;28;20255;-80
2024/03/04 19:30:20;;;;;;;25.67;21.43;;;13.00;39.20;;;;;;10480790;28;20232;-80
2024/03/04 19:35:23;;;;;;;23.17;19.67;;;13.00;39.00;;;;;;10479884;28;20247;-81
2024/03/04 19:40:27;;;;;;;22.57;18.93;;;13.00;39.10;;;;;;10484077;28;20319;-81
2024/03/04 19:45:31;;;;;;;25.67;19.73;;;13.00;39.30;;;;;;10483596;28;20227;-81
2024/03/04 19:50:34;;;;;;;25.03;20.37;;;13.00;39.00;;;;;;10482805;28;20228;-81
2024/03/04 19:55:39;;;;;;;24.90;20.80;;;13.00;38.90;;;;;;10491068;28;20236;-81
2024/03/04 20:00:42;;;;;;;24.97;19.83;;;13.00;39.10;;;;;;10484305;28;20224;-79
2024/03/04 20:05:45;;;;;;;26.00;21.13;;;13.00;38.90;;;;;;10478382;28;20266;-81
2024/03/04 20:10:50;;;;;;;21.77;17.57;;;12.90;38.90;;;;;;10475188;28;20232;-80
2024/03/04 20:15:54;;;;;;;25.87;20.53;;;12.90;39.10;;;;;;10484013;28;20224;-79
2024/03/04 20:20:57;;;;;;;25.93;19.60;;;12.90;39.10;;;;;;10482247;28;20271;-81
2024/03/04 20:26:02;;;;;;;25.07;20.20;;;12.80;39.10;;;;;;10473318;28;20263;-79
2024/03/04 20:31:05;;;;;;;24.63;19.13;;;12.90;39.40;;;;;;10479543;28;20773;-79
2024/03/04 20:36:10;;;;;;;25.13;20.10;;;12.80;39.00;;;;;;10482286;28;20608;-78
2024/03/04 20:41:15;;;;;;;24.17;19.30;;;12.80;39.10;;;;;;10478678;28;20228;-78
2024/03/04 20:46:18;;;;;;;25.63;19.97;;;12.80;39.20;;;;;;10480536;28;20603;-78
2024/03/04 20:51:29;;;;;;;27.97;22.47;;;12.80;39.10;;;;;;10479407;28;21170;-79
2024/03/04 20:56:34;;;;;;;27.53;21.80;;;12.80;39.40;;;;;;10483163;28;20612;-79
2024/03/04 21:01:37;;;;;;;24.60;19.67;;;12.80;39.20;;;;;;10477688;28;20232;-79
2024/03/04 21:06:41;;;;;;;26.53;20.60;;;12.80;38.90;;;;;;10475208;28;20224;-78
2024/03/04 21:11:45;;;;;;;29.37;21.90;;;12.80;39.10;;;;;;10468828;28;20224;-79
2024/03/04 21:16:49;;;;;;;28.73;22.37;;;12.80;39.20;;;;;;10476431;28;20224;-78
2024/03/04 21:21:52;;;;;;;28.20;21.17;;;12.70;39.00;;;;;;10471641;28;20221;-79
2024/03/04 21:26:57;;;;;;;26.77;20.97;;;12.70;39.10;;;;;;10480259;28;20603;-78
2024/03/04 21:32:01;;;;;;;37.07;27.47;;;12.70;39.30;;;;;;10478111;28;20319;-79
2024/03/04 21:37:05;;;;;;;35.13;26.07;;;12.60;39.20;;;;;;10477895;28;20212;-78
2024/03/04 21:42:21;;;;;;;32.47;24.33;;;12.60;39.30;;;;;;10478853;28;20247;-79
2024/03/04 21:47:24;;;;;;;28.70;22.47;;;12.60;39.40;;;;;;10485853;28;20256;-79
2024/03/04 21:52:29;;;;;;;28.93;22.37;;;12.60;39.20;;;;;;10479189;28;20245;-78
2024/03/04 21:57:34;;;;;;;28.87;22.70;;;12.50;39.20;;;;;;10480531;28;20256;-78
2024/03/04 22:02:37;;;;;;;30.67;22.80;;;12.50;39.50;;;;;;10477105;28;20324;-78
2024/03/04 22:07:41;;;;;;;28.33;23.23;;;12.60;39.50;;;;;;10481333;28;20660;-78
2024/03/04 22:12:45;;;;;;;30.63;23.27;;;12.60;39.50;;;;;;10479366;28;20573;-78
2024/03/04 22:17:49;;;;;;;28.77;23.10;;;12.50;39.50;;;;;;10474532;28;20223;-79
2024/03/04 22:22:52;;;;;;;33.57;24.47;;;12.50;39.40;;;;;;10475712;28;20277;-78
2024/03/04 22:27:57;;;;;;;27.83;21.37;;;12.50;39.50;;;;;;10482482;28;20252;-78
2024/03/04 22:33:00;;;;;;;32.93;24.83;;;12.40;39.70;;;;;;10477284;28;20292;-78
2024/03/04 22:38:04;;;;;;;31.67;23.67;;;12.40;39.60;;;;;;10476530;28;20229;-79
2024/03/04 22:43:08;;;;;;;32.33;24.90;;;12.40;39.70;;;;;;10478079;28;20347;-78
2024/03/04 22:48:12;;;;;;;32.47;23.87;;;12.30;39.90;;;;;;10478347;28;20217;-79
2024/03/04 22:53:15;;;;;;;29.27;23.83;;;12.30;39.70;;;;;;10482898;28;20251;-78
2024/03/04 22:58:20;;;;;;;31.63;24.73;;;12.30;39.80;;;;;;10483730;28;20265;-78
2024/03/04 23:03:25;;;;;;;33.90;24.03;;;12.30;40.10;;;;;;10480113;28;20698;-78
2024/03/04 23:08:29;;;;;;;32.43;24.13;;;12.30;40.00;;;;;;10483988;28;20307;-78
2024/03/04 23:13:33;;;;;;;27.40;20.73;;;12.30;39.80;;;;;;10478441;28;20609;-78
2024/03/04 23:18:38;;;;;;;33.17;23.77;;;12.30;40.10;;;;;;10474414;28;20252;-78
2024/03/04 23:23:41;;;;;;;32.87;24.37;;;12.30;40.60;;;;;;10467270;28;20236;-78
2024/03/04 23:28:47;;;;;;;29.53;23.13;;;12.30;40.00;;;;;;10477835;28;20232;-78
2024/03/04 23:33:51;;;;;;;29.17;22.50;;;12.30;40.20;;;;;;10478815;28;20236;-78
2024/03/04 23:38:55;;;;;;;31.63;23.73;;;12.30;40.00;;;;;;10477963;28;21153;-78
2024/03/04 23:44:00;;;;;;;33.70;24.33;;;12.30;40.00;;;;;;10477544;28;20224;-78
2024/03/04 23:49:04;;;;;;;32.30;24.33;;;12.30;40.20;;;;;;10480258;28;20243;-78
2024/03/04 23:54:07;;;;;;;28.97;22.33;;;12.30;40.20;;;;;;10480004;28;20284;-78
2024/03/04 23:59:12;;;;;;;30.30;22.53;;;12.30;40.20;;;;;;10475801;28;20231;-78
